Time;durP1;ratioP1;P1;durP2;ratioP2;P2;SDS_P1;SDS_P2;PMS_P1;PMS_P2;Temp;Humidity;BMP_temperature;BMP_pressure;BME280_temperature;BME280_humidity;BME280_pressure;Samples;Min_cycle;Max_cycle;Signal;HPM_P1;HPM_P2
2021/10/22 00:01:00;;;;;;;10.05;1.80;;;14.60;83.70;;;;;;5055608;28;20509;-78
2021/10/22 00:03:27;;;;;;;7.47;1.75;;;14.60;83.70;;;;;;5056160;28;20021;-79
2021/10/22 00:05:52;;;;;;;7.53;1.92;;;14.60;83.70;;;;;;5054435;28;20112;-79
2021/10/22 00:08:18;;;;;;;6.15;1.80;;;14.60;83.60;;;;;;5055507;28;20052;-78
2021/10/22 00:10:44;;;;;;;6.07;1.85;;;14.60;83.60;;;;;;5055598;28;20112;-77
2021/10/22 00:13:10;;;;;;;7.35;1.67;;;14.60;83.90;;;;;;5054455;28;20021;-78
2021/10/22 00:15:36;;;;;;;6.65;1.63;;;14.60;83.60;;;;;;5055080;28;20083;-78
2021/10/22 00:18:02;;;;;;;6.82;1.67;;;14.60;83.80;;;;;;5055591;28;20057;-77
2021/10/22 00:20:27;;;;;;;7.90;1.90;;;14.60;84.00;;;;;;5055102;28;20026;-77
2021/10/22 00:22:53;;;;;;;5.78;1.30;;;14.70;83.80;;;;;;5054074;28;20108;-77
2021/10/22 00:25:21;;;;;;;8.50;1.80;;;14.60;83.70;;;;;;5055463;28;20491;-78
2021/10/22 00:27:47;;;;;;;7.38;2.03;;;14.60;83.40;;;;;;5055944;28;20023;-77
2021/10/22 00:30:13;;;;;;;7.03;1.60;;;14.70;83.40;;;;;;5054001;28;20033;-78
2021/10/22 00:32:38;;;;;;;6.32;1.77;;;14.60;83.20;;;;;;5055339;28;20107;-78
2021/10/22 00:35:04;;;;;;;7.95;1.80;;;14.60;83.60;;;;;;5055441;28;20021;-77
2021/10/22 00:37:30;;;;;;;7.88;1.52;;;14.70;83.20;;;;;;5054295;28;20031;-77
2021/10/22 00:39:56;;;;;;;10.63;1.80;;;14.70;83.50;;;;;;5054273;28;20025;-78
2021/10/22 00:42:23;;;;;;;5.95;1.45;;;14.70;83.10;;;;;;5054556;28;20100;-77
2021/10/22 00:44:50;;;;;;;6.20;1.50;;;14.70;83.10;;;;;;5055121;28;20025;-77
2021/10/22 00:47:16;;;;;;;8.05;2.00;;;14.70;83.00;;;;;;5054258;28;20036;-77
2021/10/22 00:49:41;;;;;;;7.57;1.92;;;14.60;83.10;;;;;;5054238;28;20037;-77
2021/10/22 00:52:08;;;;;;;10.10;2.08;;;14.70;83.00;;;;;;5054567;28;20375;-77
2021/10/22 00:54:35;;;;;;;7.47;1.75;;;14.60;82.60;;;;;;5054602;28;20056;-77
2021/10/22 00:57:01;;;;;;;9.95;2.00;;;14.60;82.70;;;;;;5055994;28;20399;-78
2021/10/22 00:59:27;;;;;;;7.45;1.77;;;14.60;82.60;;;;;;5054163;28;20036;-78
2021/10/22 01:01:52;;;;;;;6.22;1.65;;;14.60;82.70;;;;;;5054314;28;20500;-77
2021/10/22 01:04:18;;;;;;;8.05;2.00;;;14.60;82.70;;;;;;5054717;28;20021;-77
2021/10/22 01:06:44;;;;;;;6.43;1.55;;;14.60;82.70;;;;;;5054605;28;20056;-77
2021/10/22 01:09:11;;;;;;;8.98;1.83;;;14.50;82.60;;;;;;5055161;28;20024;-78
2021/10/22 01:11:38;;;;;;;8.27;1.83;;;14.50;82.70;;;;;;5054477;28;20469;-77
2021/10/22 01:14:04;;;;;;;5.65;1.48;;;14.50;82.80;;;;;;5054489;28;20437;-78
2021/10/22 01:16:30;;;;;;;7.60;1.60;;;14.50;83.20;;;;;;5054453;28;20036;-78
2021/10/22 01:18:55;;;;;;;7.32;1.65;;;14.50;82.50;;;;;;5053928;28;20414;-79
2021/10/22 01:21:21;;;;;;;9.73;1.60;;;14.50;82.50;;;;;;5054182;28;20032;-77
2021/10/22 01:23:47;;;;;;;7.43;1.90;;;14.50;82.50;;;;;;5054358;28;20020;-77
2021/10/22 01:26:13;;;;;;;7.80;1.98;;;14.50;82.50;;;;;;5053955;28;20021;-77
2021/10/22 01:28:39;;;;;;;7.47;1.60;;;14.50;82.50;;;;;;5053849;28;20032;-77
2021/10/22 01:31:05;;;;;;;7.80;1.83;;;14.50;82.50;;;;;;5053356;28;20037;-77
2021/10/22 01:33:32;;;;;;;9.50;2.08;;;14.50;82.40;;;;;;5053504;28;20028;-78
2021/10/22 01:35:58;;;;;;;7.07;1.70;;;14.50;82.50;;;;;;5054329;28;20068;-77
2021/10/22 01:38:25;;;;;;;9.20;1.70;;;14.50;82.40;;;;;;5053434;28;20479;-77
2021/10/22 01:40:55;;;;;;;8.93;1.67;;;14.50;82.30;;;;;;5054670;28;20426;-77
2021/10/22 01:43:23;;;;;;;11.38;2.17;;;14.50;82.40;;;;;;5053648;28;20021;-77
2021/10/22 01:45:49;;;;;;;9.73;2.20;;;14.50;82.40;;;;;;5054704;28;20024;-78
2021/10/22 01:48:15;;;;;;;7.45;2.17;;;14.50;82.30;;;;;;5054288;28;20478;-77
2021/10/22 01:50:41;;;;;;;8.93;1.77;;;14.50;82.30;;;;;;5054281;28;20033;-77
2021/10/22 01:53:07;;;;;;;7.05;1.60;;;14.50;82.20;;;;;;5054362;28;20036;-77
2021/10/22 01:55:32;;;;;;;7.00;1.60;;;14.50;82.20;;;;;;5054613;28;20109;-77
2021/10/22 01:57:58;;;;;;;7.57;1.77;;;14.50;82.10;;;;;;5054286;28;20063;-77
2021/10/22 02:00:24;;;;;;;8.35;1.80;;;14.50;82.10;;;;;;5052693;28;20021;-77
2021/10/22 02:02:50;;;;;;;9.40;1.70;;;14.50;82.10;;;;;;5053443;28;20021;-78
2021/10/22 02:05:15;;;;;;;5.60;1.65;;;14.50;82.10;;;;;;5054481;28;20021;-77
2021/10/22 02:07:41;;;;;;;7.10;1.65;;;14.50;82.10;;;;;;5053471;28;20088;-77
2021/10/22 02:10:07;;;;;;;9.40;1.80;;;14.50;82.10;;;;;;5053073;28;20024;-77
2021/10/22 02:12:33;;;;;;;7.28;1.88;;;14.50;82.00;;;;;;5053263;28;20119;-78
2021/10/22 02:14:59;;;;;;;9.50;1.52;;;14.50;82.00;;;;;;5052995;28;20096;-77
2021/10/22 02:17:24;;;;;;;7.47;1.42;;;14.50;82.00;;;;;;5053376;28;20402;-78
2021/10/22 02:19:50;;;;;;;8.82;1.67;;;14.50;82.00;;;;;;5052672;28;20025;-77
2021/10/22 02:22:16;;;;;;;10.35;2.05;;;14.50;82.00;;;;;;5053520;28;20025;-77
2021/10/22 02:24:42;;;;;;;9.65;1.88;;;14.50;82.00;;;;;;5053218;28;20394;-77
2021/10/22 02:27:07;;;;;;;9.13;1.85;;;14.50;82.10;;;;;;5052916;28;20032;-78
2021/10/22 02:29:33;;;;;;;8.38;2.00;;;14.50;82.10;;;;;;5052560;28;20028;-77
2021/10/22 02:31:59;;;;;;;5.93;1.70;;;14.50;82.10;;;;;;5052647;28;20029;-79
2021/10/22 02:34:24;;;;;;;6.60;1.52;;;14.50;82.00;;;;;;5051270;28;20112;-79
2021/10/22 02:36:50;;;;;;;11.48;1.90;;;14.50;82.00;;;;;;5051155;28;20025;-78
2021/10/22 02:39:16;;;;;;;13.40;2.20;;;14.50;82.00;;;;;;5050926;28;20060;-79
2021/10/22 02:41:42;;;;;;;10.23;2.15;;;14.50;82.00;;;;;;5051291;28;20022;-78
2021/10/22 02:44:08;;;;;;;8.10;1.80;;;14.50;81.90;;;;;;5051360;28;20025;-79
2021/10/22 02:46:33;;;;;;;6.53;1.90;;;14.50;81.90;;;;;;5046700;28;20075;-77
2021/10/22 02:48:59;;;;;;;7.00;1.60;;;14.50;81.90;;;;;;5040085;28;20037;-78
2021/10/22 02:51:24;;;;;;;7.57;1.95;;;14.50;81.80;;;;;;5051990;28;20073;-79
2021/10/22 02:53:50;;;;;;;6.95;1.60;;;14.50;81.80;;;;;;5037040;28;20052;-77
2021/10/22 02:56:16;;;;;;;7.78;1.70;;;14.50;81.70;;;;;;5036863;28;20033;-78
2021/10/22 02:58:41;;;;;;;9.77;2.00;;;14.50;81.70;;;;;;5051911;28;20483;-79
2021/10/22 03:01:07;;;;;;;7.35;1.55;;;14.50;81.60;;;;;;5052272;28;20375;-77
2021/10/22 03:03:33;;;;;;;8.65;1.88;;;14.50;81.90;;;;;;5052312;28;20021;-78
2021/10/22 03:05:59;;;;;;;7.55;1.80;;;14.50;81.70;;;;;;5051997;28;20396;-78
2021/10/22 03:08:24;;;;;;;7.72;1.65;;;14.50;81.90;;;;;;5051350;28;20078;-79
2021/10/22 03:10:50;;;;;;;7.88;2.10;;;14.50;81.90;;;;;;5051427;28;20017;-79
2021/10/22 03:13:15;;;;;;;6.95;1.73;;;14.50;81.70;;;;;;5051468;28;20101;-78
2021/10/22 03:15:41;;;;;;;7.43;2.10;;;14.50;81.60;;;;;;5051597;28;20534;-78
2021/10/22 03:18:06;;;;;;;9.13;1.70;;;14.50;81.60;;;;;;5051462;28;20026;-79
2021/10/22 03:20:32;;;;;;;7.40;1.92;;;14.60;81.40;;;;;;5051052;28;20033;-77
2021/10/22 03:22:58;;;;;;;10.93;2.00;;;14.60;81.30;;;;;;5051632;28;20036;-78
2021/10/22 03:25:23;;;;;;;7.38;1.80;;;14.60;81.40;;;;;;5051768;28;20113;-77
2021/10/22 03:27:49;;;;;;;6.15;1.50;;;14.60;81.30;;;;;;5051529;28;20083;-77
2021/10/22 03:30:15;;;;;;;6.78;1.55;;;14.60;81.20;;;;;;5051408;28;20088;-79
2021/10/22 03:32:40;;;;;;;6.22;1.70;;;14.60;81.00;;;;;;5051387;28;20025;-79
2021/10/22 03:35:06;;;;;;;4.75;1.60;;;14.60;81.20;;;;;;5051627;28;20498;-77
2021/10/22 03:37:32;;;;;;;7.32;1.70;;;14.60;81.00;;;;;;5051941;28;20036;-77
2021/10/22 03:39:58;;;;;;;6.55;1.85;;;14.60;81.00;;;;;;5051028;28;20483;-77
2021/10/22 03:42:24;;;;;;;11.15;1.90;;;14.60;80.50;;;;;;5051264;28;20036;-79
2021/10/22 03:44:49;;;;;;;6.60;1.85;;;14.60;80.20;;;;;;5051558;28;20022;-77
2021/10/22 03:47:15;;;;;;;10.02;2.20;;;14.50;80.20;;;;;;5051233;28;20029;-79
2021/10/22 03:49:40;;;;;;;8.07;1.90;;;14.50;80.30;;;;;;5050891;28;20053;-78
2021/10/22 03:52:06;;;;;;;7.47;2.08;;;14.50;80.30;;;;;;5051480;28;20160;-78
2021/10/22 03:54:32;;;;;;;8.40;2.13;;;14.50;80.30;;;;;;5051643;28;20024;-77
2021/10/22 03:56:57;;;;;;;9.57;2.33;;;14.40;80.30;;;;;;5035431;28;20037;-77
2021/10/22 03:59:23;;;;;;;7.00;2.10;;;14.40;80.40;;;;;;5035606;28;20029;-77
2021/10/22 04:01:50;;;;;;;10.40;1.85;;;14.40;80.30;;;;;;5051976;28;20026;-78
2021/10/22 04:04:16;;;;;;;6.63;1.83;;;14.40;80.30;;;;;;5052487;28;20442;-77
2021/10/22 04:06:41;;;;;;;7.43;2.20;;;14.30;80.20;;;;;;5052568;28;20021;-77
2021/10/22 04:09:08;;;;;;;7.70;2.15;;;14.40;80.20;;;;;;5051662;28;20445;-77
2021/10/22 04:11:34;;;;;;;6.53;2.00;;;14.40;80.10;;;;;;5055326;28;20031;-77
2021/10/22 04:14:01;;;;;;;7.00;2.03;;;14.40;80.70;;;;;;5054969;28;20031;-77
2021/10/22 04:16:27;;;;;;;8.95;2.10;;;14.40;80.00;;;;;;5054944;28;20075;-78
2021/10/22 04:18:53;;;;;;;10.82;2.10;;;14.40;80.10;;;;;;5054714;28;20075;-77
2021/10/22 04:21:18;;;;;;;7.85;1.80;;;14.40;80.00;;;;;;5055414;28;20021;-77
2021/10/22 04:23:45;;;;;;;7.70;2.38;;;14.40;79.90;;;;;;5055484;28;20025;-77
2021/10/22 04:26:11;;;;;;;6.90;2.10;;;14.40;79.90;;;;;;5055569;28;20021;-77
2021/10/22 04:28:37;;;;;;;10.88;2.25;;;14.40;79.90;;;;;;5054390;28;20029;-77
2021/10/22 04:31:02;;;;;;;9.20;2.40;;;14.40;79.80;;;;;;5054150;28;20136;-78
2021/10/22 04:33:28;;;;;;;9.98;2.38;;;14.40;79.80;;;;;;5054813;28;20021;-78
2021/10/22 04:35:54;;;;;;;10.05;2.60;;;14.40;79.70;;;;;;5054742;28;20048;-77
2021/10/22 04:41:04;;;;;;;10.43;2.63;;;14.40;79.70;;;;;;5056979;28;20059;-78
2021/10/22 04:43:30;;;;;;;9.02;2.47;;;14.40;79.60;;;;;;5057986;28;20021;-78
2021/10/22 04:45:55;;;;;;;11.55;2.50;;;14.40;79.60;;;;;;5057570;28;20466;-79
2021/10/22 04:48:21;;;;;;;7.65;2.30;;;14.40;79.60;;;;;;5051656;28;20017;-81
2021/10/22 04:50:50;;;;;;;11.20;2.10;;;14.40;79.70;;;;;;5056947;28;20035;-78
2021/10/22 04:53:18;;;;;;;9.18;2.65;;;14.40;79.60;;;;;;5058171;28;20487;-80
2021/10/22 04:55:44;;;;;;;9.38;2.50;;;14.40;79.50;;;;;;5056958;28;20059;-78
2021/10/22 04:58:10;;;;;;;11.30;2.53;;;14.40;79.40;;;;;;5056960;28;20079;-79
2021/10/22 05:00:36;;;;;;;12.32;2.47;;;14.40;79.00;;;;;;5057969;28;20021;-78
2021/10/22 05:03:02;;;;;;;10.63;2.03;;;14.40;79.20;;;;;;5058039;28;20021;-80
2021/10/22 05:05:28;;;;;;;10.88;2.30;;;14.40;79.10;;;;;;5055299;28;20017;-79
2021/10/22 05:07:54;;;;;;;10.82;2.45;;;14.40;79.20;;;;;;5056808;28;20102;-78
2021/10/22 05:10:19;;;;;;;10.05;2.33;;;14.40;79.30;;;;;;5055156;28;20402;-79
2021/10/22 05:12:45;;;;;;;12.48;2.97;;;14.40;79.20;;;;;;5057714;28;20051;-78
2021/10/22 05:15:11;;;;;;;10.45;2.45;;;14.40;79.40;;;;;;5057903;28;20059;-78
2021/10/22 05:17:38;;;;;;;10.77;2.05;;;14.40;79.30;;;;;;5056276;28;20025;-78
2021/10/22 14:29:46;;;;;;;4.15;1.00;;;14.60;80.40;;;;;;4917011;29;20032;-79
2021/10/22 14:32:12;;;;;;;3.22;0.73;;;14.60;80.40;;;;;;4916142;29;20055;-79
2021/10/22 14:34:38;;;;;;;4.97;1.20;;;14.60;80.50;;;;;;4915260;29;20429;-79
2021/10/22 14:37:04;;;;;;;3.00;1.00;;;14.60;80.40;;;;;;4916136;29;20035;-77
2021/10/22 14:39:29;;;;;;;3.45;0.80;;;14.60;80.40;;;;;;4915315;29;20050;-79
2021/10/22 14:41:55;;;;;;;3.22;1.15;;;14.60;80.30;;;;;;4909722;29;20095;-79
2021/10/22 14:44:41;;;;;;;4.63;1.02;;;14.70;80.40;;;;;;4903766;29;20107;-79
2021/10/22 14:47:37;;;;;;;3.15;0.90;;;14.60;80.30;;;;;;4902671;29;20043;-78
2021/10/22 14:50:24;;;;;;;3.83;0.98;;;14.70;80.40;;;;;;4922566;29;20028;-79
2021/10/22 14:57:52;;;;;;;3.83;0.90;;;14.70;80.40;;;;;;4923081;29;20390;-78
2021/10/22 15:00:19;;;;;;;3.70;0.90;;;14.70;80.50;;;;;;4921436;29;20024;-77
2021/10/22 15:02:45;;;;;;;3.05;0.90;;;14.70;80.50;;;;;;4921521;29;20024;-80
2021/10/22 15:05:11;;;;;;;3.78;1.00;;;14.70;80.60;;;;;;4921958;29;20397;-78
2021/10/22 15:07:36;;;;;;;4.15;0.95;;;14.70;80.60;;;;;;4921760;29;20024;-80
2021/10/22 15:10:03;;;;;;;3.92;1.10;;;14.60;80.70;;;;;;4922299;29;20079;-79
2021/10/22 15:12:29;;;;;;;2.92;1.02;;;14.60;80.80;;;;;;4921967;29;20064;-80
2021/10/22 15:14:55;;;;;;;2.80;0.60;;;14.60;81.00;;;;;;4921712;29;20032;-79
2021/10/22 15:17:21;;;;;;;3.40;0.80;;;14.50;81.10;;;;;;4921784;29;20024;-79
2021/10/22 15:19:47;;;;;;;2.38;0.88;;;14.50;81.30;;;;;;4922832;29;20028;-80
2021/10/22 15:22:13;;;;;;;3.35;0.90;;;14.50;81.40;;;;;;4921474;29;20039;-81
2021/10/22 15:24:39;;;;;;;5.40;1.00;;;14.50;81.40;;;;;;4921557;29;20028;-80
2021/10/22 15:27:05;;;;;;;2.53;0.70;;;14.50;81.50;;;;;;4921484;29;20411;-79
2021/10/22 15:29:30;;;;;;;3.92;0.90;;;14.50;81.60;;;;;;4921786;29;20111;-80
2021/10/22 15:31:56;;;;;;;3.10;0.80;;;14.50;81.70;;;;;;4921505;29;20084;-80
2021/10/22 15:34:21;;;;;;;3.15;0.77;;;14.50;81.70;;;;;;4921746;29;20028;-80
2021/10/22 15:36:47;;;;;;;3.28;0.70;;;14.50;81.70;;;;;;4922198;29;20378;-81
2021/10/22 15:39:14;;;;;;;3.40;0.85;;;14.40;81.70;;;;;;4921063;29;20084;-81
2021/10/22 15:41:40;;;;;;;4.72;0.80;;;14.50;81.80;;;;;;4921271;29;20028;-80
2021/10/22 15:44:07;;;;;;;3.45;0.95;;;14.40;81.70;;;;;;4921266;29;20043;-81
2021/10/22 15:46:35;;;;;;;1.77;0.70;;;14.50;81.80;;;;;;4921502;29;20028;-80
2021/10/22 15:49:01;;;;;;;3.40;0.73;;;14.50;81.80;;;;;;4921564;29;20129;-81
2021/10/22 15:51:27;;;;;;;3.78;0.82;;;14.50;81.90;;;;;;4922120;29;20024;-81
2021/10/22 15:53:53;;;;;;;3.08;0.77;;;14.50;81.90;;;;;;4916886;29;20039;-81
2021/10/22 15:56:18;;;;;;;5.07;0.95;;;14.50;81.90;;;;;;4916915;29;20110;-81
2021/10/22 15:58:44;;;;;;;5.25;0.93;;;14.40;81.80;;;;;;4918186;29;20549;-81
2021/10/22 16:01:10;;;;;;;6.90;1.08;;;14.40;81.00;;;;;;4918264;29;20489;-79
2021/10/22 16:03:35;;;;;;;7.38;1.10;;;14.40;80.50;;;;;;4918824;29;20024;-80
2021/10/22 16:06:08;;;;;;;7.38;1.25;;;14.40;79.90;;;;;;4918885;29;20051;-80
2021/10/22 16:08:40;;;;;;;8.80;1.10;;;14.40;79.60;;;;;;4918625;29;20031;-81
2021/10/22 16:11:26;;;;;;;8.30;1.20;;;14.40;79.50;;;;;;4915704;29;20040;-78
2021/10/22 16:14:15;;;;;;;7.97;1.23;;;14.40;79.70;;;;;;4900107;29;20036;-81
2021/10/22 16:19:08;;;;;;;7.80;1.10;;;14.50;80.30;;;;;;4903979;29;20142;-79
2021/10/22 16:21:34;;;;;;;5.90;1.30;;;14.40;80.40;;;;;;4929466;29;20102;-80
2021/10/22 16:23:59;;;;;;;7.07;1.13;;;14.40;80.50;;;;;;4919486;29;20475;-79
2021/10/22 16:26:25;;;;;;;5.00;1.10;;;14.40;80.60;;;;;;4922277;29;20024;-81
2021/10/22 16:28:50;;;;;;;4.60;1.10;;;14.40;80.70;;;;;;4936965;29;20027;-83
2021/10/22 16:31:17;;;;;;;7.28;1.15;;;14.40;80.80;;;;;;4937627;29;20166;-80
2021/10/22 16:36:10;;;;;;;5.18;1.13;;;14.40;80.90;;;;;;4938786;29;20028;-80
2021/10/22 16:38:35;;;;;;;7.85;0.95;;;14.40;80.90;;;;;;4937001;29;20051;-80
2021/10/22 16:41:01;;;;;;;4.90;1.00;;;14.40;80.90;;;;;;4937025;29;20047;-81
2021/10/22 16:43:27;;;;;;;6.90;1.25;;;14.40;80.90;;;;;;4937161;29;20034;-81
2021/10/22 16:45:53;;;;;;;5.70;0.88;;;14.40;80.90;;;;;;4931958;29;20028;-79
2021/10/22 16:48:28;;;;;;;4.95;1.05;;;14.40;80.90;;;;;;4899157;29;20031;-81
2021/10/22 16:50:54;;;;;;;6.00;1.00;;;14.40;81.00;;;;;;4910428;29;20024;-80
2021/10/22 16:53:20;;;;;;;4.20;1.00;;;14.40;81.10;;;;;;4913978;29;20040;-81
2021/10/22 16:55:45;;;;;;;3.97;0.80;;;14.40;81.10;;;;;;4903974;29;20422;-79
2021/10/22 16:58:11;;;;;;;5.00;1.15;;;14.40;81.20;;;;;;4909931;29;20056;-80
2021/10/22 17:00:37;;;;;;;4.85;1.00;;;14.40;81.20;;;;;;4917622;29;20024;-80
2021/10/22 17:03:05;;;;;;;6.28;1.10;;;14.40;81.30;;;;;;4917977;29;20379;-80
2021/10/22 17:05:31;;;;;;;5.80;1.10;;;14.50;81.10;;;;;;4912909;29;20059;-80
2021/10/22 17:07:56;;;;;;;5.85;0.98;;;14.50;80.90;;;;;;4898704;29;20699;-82
2021/10/22 17:10:23;;;;;;;6.50;1.30;;;14.50;80.60;;;;;;4898648;29;20032;-80
2021/10/22 17:12:50;;;;;;;6.13;1.02;;;14.50;80.70;;;;;;4899088;29;20040;-80
2021/10/22 17:15:16;;;;;;;3.90;1.13;;;14.40;80.70;;;;;;4912140;29;20052;-80
2021/10/22 17:17:42;;;;;;;4.53;1.00;;;14.50;81.00;;;;;;4898794;29;20028;-82
2021/10/22 17:20:09;;;;;;;6.75;0.90;;;14.50;81.20;;;;;;4898808;29;20029;-81
2021/10/22 17:22:35;;;;;;;6.38;1.00;;;14.50;81.10;;;;;;4898986;29;20029;-82
2021/10/22 17:25:06;;;;;;;4.05;1.10;;;14.50;81.00;;;;;;4914221;29;20024;-80
2021/10/22 17:27:33;;;;;;;3.53;0.90;;;14.50;81.10;;;;;;4937451;29;20337;-83
2021/10/22 17:29:59;;;;;;;5.57;1.05;;;14.50;81.00;;;;;;4937956;29;20082;-84
2021/10/22 17:32:25;;;;;;;3.53;0.98;;;14.50;81.00;;;;;;4936281;29;20027;-81
2021/10/22 17:34:51;;;;;;;4.32;1.13;;;14.50;81.00;;;;;;4936022;29;20370;-84
2021/10/22 17:37:18;;;;;;;5.15;1.35;;;14.50;81.00;;;;;;4940988;28;20032;-82
2021/10/22 17:39:43;;;;;;;5.50;1.15;;;14.60;81.00;;;;;;4916601;29;20043;-79
2021/10/22 17:42:09;;;;;;;4.60;0.90;;;14.50;81.00;;;;;;4933055;29;20418;-81
2021/10/22 17:44:34;;;;;;;4.75;0.90;;;14.60;81.10;;;;;;4918548;29;20070;-83
2021/10/22 17:47:00;;;;;;;3.50;1.00;;;14.50;81.00;;;;;;4932750;29;20490;-79
2021/10/22 17:49:26;;;;;;;5.85;1.02;;;14.50;81.00;;;;;;4932608;29;20741;-82
2021/10/22 17:51:51;;;;;;;5.07;1.10;;;14.50;81.10;;;;;;4918141;29;20028;-80
2021/10/22 17:54:17;;;;;;;3.90;0.98;;;14.50;81.20;;;;;;4918365;29;20032;-82
2021/10/22 17:56:42;;;;;;;5.18;1.30;;;14.50;81.20;;;;;;4931414;29;20594;-82
2021/10/22 17:59:08;;;;;;;5.57;1.10;;;14.50;81.30;;;;;;4916593;29;20067;-81
2021/10/22 18:01:34;;;;;;;5.88;1.63;;;14.50;81.20;;;;;;4916939;29;20028;-80
2021/10/22 18:04:02;;;;;;;4.43;0.93;;;14.40;81.20;;;;;;4931387;29;20032;-79
2021/10/22 18:06:28;;;;;;;5.40;1.00;;;14.40;81.20;;;;;;4931535;29;20115;-80
2021/10/22 18:08:53;;;;;;;4.80;1.00;;;14.40;81.20;;;;;;4929009;29;20152;-80
2021/10/22 18:11:19;;;;;;;5.18;1.23;;;14.40;81.30;;;;;;4931550;29;20115;-80
2021/10/22 18:13:45;;;;;;;7.00;1.25;;;14.40;81.30;;;;;;4931515;29;20028;-82
2021/10/22 18:16:11;;;;;;;4.20;1.08;;;14.40;81.20;;;;;;4931067;29;20048;-78
2021/10/22 18:18:37;;;;;;;8.68;1.73;;;14.40;81.20;;;;;;4931130;29;20024;-81
2021/10/22 18:21:05;;;;;;;6.28;1.27;;;14.40;81.20;;;;;;4931057;29;20028;-81
2021/10/22 18:23:31;;;;;;;6.10;1.40;;;14.40;81.10;;;;;;4931466;29;20662;-83
2021/10/22 18:25:57;;;;;;;9.73;1.60;;;14.40;81.10;;;;;;4931381;29;20119;-81
2021/10/22 18:28:34;;;;;;;7.20;1.27;;;14.40;81.10;;;;;;4930934;29;20060;-81
2021/10/22 18:31:02;;;;;;;8.90;1.20;;;14.40;81.00;;;;;;4931267;29;20378;-81
2021/10/22 18:33:30;;;;;;;6.97;1.30;;;14.40;81.00;;;;;;4931176;29;20025;-80
2021/10/22 18:35:56;;;;;;;6.43;1.42;;;14.40;80.90;;;;;;4930780;29;20056;-79
2021/10/22 18:38:22;;;;;;;9.32;1.58;;;14.40;81.50;;;;;;4930933;29;20055;-78
2021/10/22 18:40:48;;;;;;;7.72;1.35;;;14.40;81.00;;;;;;4931029;29;20032;-78
2021/10/22 18:43:14;;;;;;;13.07;1.90;;;14.40;80.90;;;;;;4931333;29;20439;-78
2021/10/22 18:45:39;;;;;;;6.85;1.25;;;14.40;80.80;;;;;;4931160;29;20025;-78
2021/10/22 18:48:07;;;;;;;11.52;1.60;;;14.40;80.80;;;;;;4930808;29;20560;-77
2021/10/22 18:50:34;;;;;;;7.07;1.40;;;14.30;80.80;;;;;;4931257;29;20096;-76
2021/10/22 18:53:02;;;;;;;10.60;1.48;;;14.30;80.80;;;;;;4931084;29;20477;-78
2021/10/22 18:55:27;;;;;;;6.95;1.30;;;14.30;80.80;;;;;;4931304;29;20032;-78
2021/10/22 18:57:53;;;;;;;12.23;1.27;;;14.40;80.80;;;;;;4930774;29;20132;-77
2021/10/22 19:00:19;;;;;;;7.75;1.20;;;14.30;80.80;;;;;;4916428;29;20035;-80
2021/10/22 19:02:46;;;;;;;9.70;1.60;;;14.30;80.70;;;;;;4930989;29;20542;-79
2021/10/22 19:05:14;;;;;;;10.05;1.50;;;14.30;80.80;;;;;;4916435;29;20025;-79
2021/10/22 19:07:41;;;;;;;6.68;1.27;;;14.30;81.30;;;;;;4916227;29;20079;-78
2021/10/22 19:10:08;;;;;;;7.68;1.55;;;14.30;80.70;;;;;;4915405;29;20035;-78
2021/10/22 19:12:35;;;;;;;10.07;1.40;;;14.40;80.80;;;;;;4898717;29;20060;-80
2021/10/22 19:15:03;;;;;;;8.07;1.15;;;14.30;80.80;;;;;;4930883;29;20036;-80
2021/10/22 19:17:30;;;;;;;9.70;1.50;;;14.40;81.00;;;;;;4915906;29;20024;-80
2021/10/22 19:19:56;;;;;;;10.43;1.52;;;14.30;80.90;;;;;;4915873;29;20047;-81
2021/10/22 19:22:21;;;;;;;7.93;1.77;;;14.30;81.00;;;;;;4916450;29;20028;-78
2021/10/22 19:24:48;;;;;;;4.95;1.50;;;14.30;81.00;;;;;;4914975;29;20029;-80
2021/10/22 19:27:15;;;;;;;9.45;1.65;;;14.40;81.10;;;;;;4915975;29;20029;-78
2021/10/22 19:29:41;;;;;;;10.05;1.80;;;14.40;81.10;;;;;;4918630;29;20035;-76
2021/10/22 19:32:07;;;;;;;9.05;1.80;;;14.30;81.10;;;;;;4919719;29;20024;-77
2021/10/22 19:34:34;;;;;;;11.15;1.83;;;14.30;81.10;;;;;;4934254;29;20618;-79
2021/10/22 19:37:00;;;;;;;7.47;1.77;;;14.30;81.10;;;;;;4919457;29;20035;-79
2021/10/22 19:39:26;;;;;;;8.00;1.50;;;14.30;81.20;;;;;;4919543;29;20051;-79
2021/10/22 19:41:51;;;;;;;10.68;1.65;;;14.30;81.20;;;;;;4919603;29;20541;-79
2021/10/22 19:44:17;;;;;;;11.10;1.70;;;14.30;81.20;;;;;;4919075;29;20047;-77
2021/10/22 19:46:44;;;;;;;11.60;1.77;;;14.30;81.30;;;;;;4918288;29;20379;-79
2021/10/22 19:49:11;;;;;;;7.68;1.40;;;14.40;81.30;;;;;;4917982;29;20067;-79
2021/10/22 19:51:41;;;;;;;9.32;1.98;;;14.30;81.30;;;;;;4933906;29;20035;-79
2021/10/22 19:54:10;;;;;;;7.28;1.40;;;14.30;81.30;;;;;;4919430;29;20028;-79
2021/10/22 19:56:36;;;;;;;10.32;1.60;;;14.30;81.30;;;;;;4933799;29;20054;-80
2021/10/22 19:59:04;;;;;;;11.38;1.58;;;14.30;81.30;;;;;;4933392;29;20478;-79
2021/10/22 20:01:31;;;;;;;15.35;2.40;;;14.30;81.40;;;;;;4933906;29;20457;-76
2021/10/22 20:03:57;;;;;;;13.00;1.83;;;14.30;81.50;;;;;;4933715;29;20028;-79
2021/10/22 20:06:23;;;;;;;10.98;1.75;;;14.30;81.50;;;;;;4933858;29;20055;-76
2021/10/22 20:08:48;;;;;;;12.43;2.10;;;14.30;81.50;;;;;;4933463;29;20024;-79
2021/10/22 20:11:15;;;;;;;8.05;1.40;;;14.40;81.70;;;;;;4933808;29;20557;-79
2021/10/22 20:13:43;;;;;;;12.48;1.70;;;14.40;81.50;;;;;;4933736;29;20379;-79
2021/10/22 20:16:11;;;;;;;10.85;1.90;;;14.30;81.50;;;;;;4933785;29;20032;-79
2021/10/22 20:18:37;;;;;;;8.70;1.73;;;14.40;81.50;;;;;;4918651;29;20039;-77
2021/10/22 20:21:06;;;;;;;8.35;1.33;;;14.40;81.40;;;;;;4933286;29;20036;-79
2021/10/22 20:23:32;;;;;;;10.07;1.30;;;14.40;81.30;;;;;;4918894;29;20099;-80
2021/10/22 20:25:58;;;;;;;12.05;1.83;;;14.40;81.40;;;;;;4918637;29;20028;-80
2021/10/22 20:28:23;;;;;;;10.77;1.77;;;14.40;81.20;;;;;;4932975;29;20076;-79
2021/10/22 20:30:49;;;;;;;11.45;2.40;;;14.40;81.20;;;;;;4933111;29;20109;-79
2021/10/22 20:33:16;;;;;;;10.35;1.65;;;14.40;81.30;;;;;;4918531;29;20083;-79
2021/10/22 20:35:43;;;;;;;12.10;1.98;;;14.40;81.30;;;;;;4932987;29;20371;-80
2021/10/22 20:38:10;;;;;;;12.73;2.15;;;14.40;81.30;;;;;;4932845;29;20062;-78
2021/10/22 20:40:36;;;;;;;12.32;2.08;;;14.40;81.30;;;;;;4917950;29;20031;-79
2021/10/22 20:43:02;;;;;;;12.00;1.80;;;14.40;81.40;;;;;;4917881;29;20020;-79
2021/10/22 20:45:28;;;;;;;8.90;1.70;;;14.40;81.20;;;;;;4932827;29;20063;-80
2021/10/22 20:48:03;;;;;;;12.32;2.10;;;14.40;81.20;;;;;;4932734;29;20020;-78
2021/10/22 20:58:29;;;;;;;11.75;1.70;;;14.40;81.20;;;;;;4918186;29;20055;-79
2021/10/22 21:00:54;;;;;;;8.82;1.90;;;14.40;81.30;;;;;;4932604;29;20071;-78
2021/10/22 21:03:20;;;;;;;14.43;2.47;;;14.30;81.40;;;;;;4916706;29;20039;-79
2021/10/22 21:05:45;;;;;;;9.43;1.85;;;14.30;81.50;;;;;;4917898;29;20016;-78
2021/10/22 21:08:12;;;;;;;9.25;1.92;;;14.30;81.60;;;;;;4917592;29;20056;-79
2021/10/22 21:10:39;;;;;;;9.85;2.03;;;14.20;81.70;;;;;;4932457;29;20054;-79
2021/10/22 21:13:04;;;;;;;8.90;2.00;;;14.30;81.80;;;;;;4932269;29;20473;-78
2021/10/22 21:15:30;;;;;;;7.38;1.90;;;14.30;81.90;;;;;;4932409;29;20118;-79
2021/10/22 21:17:56;;;;;;;9.15;2.05;;;14.20;81.80;;;;;;4931986;29;20035;-79
2021/10/22 21:20:21;;;;;;;7.63;1.90;;;14.30;81.90;;;;;;4932014;29;20036;-79
2021/10/22 21:22:47;;;;;;;6.55;1.67;;;14.20;81.80;;;;;;4932301;29;20020;-79
2021/10/22 21:25:13;;;;;;;10.63;2.03;;;14.20;81.80;;;;;;4917601;29;20052;-79
2021/10/22 21:27:38;;;;;;;7.18;1.80;;;14.20;81.80;;;;;;4931837;29;20449;-77
2021/10/22 21:30:05;;;;;;;5.60;1.52;;;14.20;81.80;;;;;;4917372;29;20028;-79
2021/10/22 21:32:31;;;;;;;7.72;1.58;;;14.30;81.90;;;;;;4916248;29;20032;-79
2021/10/22 21:34:57;;;;;;;9.65;1.95;;;14.30;81.90;;;;;;4932044;29;20044;-79
2021/10/22 21:37:23;;;;;;;8.90;2.03;;;14.20;81.90;;;;;;4931828;29;20105;-78
2021/10/22 21:39:48;;;;;;;7.45;2.13;;;14.30;81.90;;;;;;4931910;29;20035;-78
2021/10/22 21:42:14;;;;;;;7.55;2.08;;;14.30;81.90;;;;;;4931535;29;20036;-78
2021/10/22 21:44:40;;;;;;;10.05;2.10;;;14.30;81.90;;;;;;4917250;29;20028;-79
2021/10/22 21:47:06;;;;;;;10.45;2.00;;;14.30;81.90;;;;;;4931656;29;20030;-77
2021/10/22 21:49:32;;;;;;;7.63;1.60;;;14.20;81.80;;;;;;4931662;29;20028;-77
2021/10/22 21:51:58;;;;;;;7.55;1.85;;;14.30;81.90;;;;;;4930960;29;20039;-79
2021/10/22 21:54:24;;;;;;;9.40;2.10;;;14.20;81.80;;;;;;4931658;29;20024;-78
2021/10/22 21:56:49;;;;;;;6.85;1.85;;;14.20;82.30;;;;;;4931596;29;20024;-79
2021/10/22 21:59:15;;;;;;;8.02;1.92;;;14.20;81.70;;;;;;4931200;29;20047;-79
2021/10/22 22:01:41;;;;;;;8.07;1.95;;;14.20;81.70;;;;;;4931613;29;20026;-79
2021/10/22 22:04:08;;;;;;;5.38;1.70;;;14.20;81.80;;;;;;4931576;29;20031;-79
2021/10/22 22:06:33;;;;;;;7.30;1.83;;;14.20;81.70;;;;;;4916909;29;20020;-79
2021/10/22 22:08:59;;;;;;;7.65;2.13;;;14.30;81.80;;;;;;4931298;29;20051;-80
2021/10/22 22:11:24;;;;;;;8.57;2.00;;;14.20;81.70;;;;;;4931583;29;20042;-78